sensor_id;sensor_type;location;lat;lon;timestamp;temperature;humidity
4820;DHT22;2424;49.696;6.630;2023-04-08T00:03:22;8.40;99.90
4820;DHT22;2424;49.696;6.630;2023-04-08T00:08:45;8.40;99.90
4820;DHT22;2424;49.696;6.630;2023-04-08T00:14:07;8.40;99.90
4820;DHT22;2424;49.696;6.630;2023-04-08T00:19:29;8.40;99.90
4820;DHT22;2424;49.696;6.630;2023-04-08T00:24:53;8.40;99.90
4820;DHT22;2424;49.696;6.630;2023-04-08T00:30:15;8.30;99.90
4820;DHT22;2424;49.696;6.630;2023-04-08T00:35:37;8.30;99.90
4820;DHT22;2424;49.696;6.630;2023-04-08T00:41:00;8.20;99.90
4820;DHT22;2424;49.696;6.630;2023-04-08T00:46:22;8.30;99.90
4820;DHT22;2424;49.696;6.630;2023-04-08T00:51:44;8.20;99.90
4820;DHT22;2424;49.696;6.630;2023-04-08T00:57:07;8.20;99.90
4820;DHT22;2424;49.696;6.630;2023-04-08T01:02:35;8.10;99.90
4820;DHT22;2424;49.696;6.630;2023-04-08T01:08:01;8.20;99.90
4820;DHT22;2424;49.696;6.630;2023-04-08T01:13:30;8.10;99.90
4820;DHT22;2424;49.696;6.630;2023-04-08T01:18:55;8.10;99.90
4820;DHT22;2424;49.696;6.630;2023-04-08T01:24:21;8.10;99.90
4820;DHT22;2424;49.696;6.630;2023-04-08T01:29:47;8.10;99.90
4820;DHT22;2424;49.696;6.630;2023-04-08T01:35:10;8.00;99.90
4820;DHT22;2424;49.696;6.630;2023-04-08T01:40:32;8.00;99.90
4820;DHT22;2424;49.696;6.630;2023-04-08T01:45:57;8.00;99.90
4820;DHT22;2424;49.696;6.630;2023-04-08T01:51:21;8.00;99.90
4820;DHT22;2424;49.696;6.630;2023-04-08T01:56:44;7.80;99.90
4820;DHT22;2424;49.696;6.630;2023-04-08T02:02:09;7.90;99.90
4820;DHT22;2424;49.696;6.630;2023-04-08T02:07:31;7.80;99.90
4820;DHT22;2424;49.696;6.630;2023-04-08T02:12:53;7.90;99.90
4820;DHT22;2424;49.696;6.630;2023-04-08T02:18:23;7.80;99.90
4820;DHT22;2424;49.696;6.630;2023-04-08T02:23:48;7.80;99.90
4820;DHT22;2424;49.696;6.630;2023-04-08T02:29:13;7.80;99.90
4820;DHT22;2424;49.696;6.630;2023-04-08T02:34:37;7.70;99.90
4820;DHT22;2424;49.696;6.630;2023-04-08T02:40:00;7.70;99.90
4820;DHT22;2424;49.696;6.630;2023-04-08T02:45:24;7.60;99.90
4820;DHT22;2424;49.696;6.630;2023-04-08T02:50:49;7.60;99.90
4820;DHT22;2424;49.696;6.630;2023-04-08T02:56:11;7.60;99.90
4820;DHT22;2424;49.696;6.630;2023-04-08T03:01:33;7.60;99.90
4820;DHT22;2424;49.696;6.630;2023-04-08T03:06:56;7.60;99.90
4820;DHT22;2424;49.696;6.630;2023-04-08T03:12:18;7.70;99.90
4820;DHT22;2424;49.696;6.630;2023-04-08T03:17:40;7.60;99.90
4820;DHT22;2424;49.696;6.630;2023-04-08T03:23:03;7.60;99.90
4820;DHT22;2424;49.696;6.630;2023-04-08T03:28:25;7.60;99.90
4820;DHT22;2424;49.696;6.630;2023-04-08T03:33:47;7.60;99.90
4820;DHT22;2424;49.696;6.630;2023-04-08T03:39:10;7.60;99.90
4820;DHT22;2424;49.696;6.630;2023-04-08T03:44:32;7.50;99.90
4820;DHT22;2424;49.696;6.630;2023-04-08T03:49:54;7.50;99.90
4820;DHT22;2424;49.696;6.630;2023-04-08T03:55:18;7.50;99.90
4820;DHT22;2424;49.696;6.630;2023-04-08T04:00:39;7.50;99.90
4820;DHT22;2424;49.696;6.630;2023-04-08T04:06:01;7.50;99.90
4820;DHT22;2424;49.696;6.630;2023-04-08T04:11:25;7.50;99.90
4820;DHT22;2424;49.696;6.630;2023-04-08T04:16:47;7.40;99.90
4820;DHT22;2424;49.696;6.630;2023-04-08T04:22:09;7.50;99.90
4820;DHT22;2424;49.696;6.630;2023-04-08T04:27:32;7.50;99.90
4820;DHT22;2424;49.696;6.630;2023-04-08T04:32:55;7.50;99.90
4820;DHT22;2424;49.696;6.630;2023-04-08T04:38:18;7.50;99.90
4820;DHT22;2424;49.696;6.630;2023-04-08T04:43:41;7.50;99.90
4820;DHT22;2424;49.696;6.630;2023-04-08T04:49:03;7.50;99.90
4820;DHT22;2424;49.696;6.630;2023-04-08T04:54:25;7.50;99.90
4820;DHT22;2424;49.696;6.630;2023-04-08T04:59:48;7.50;99.90
4820;DHT22;2424;49.696;6.630;2023-04-08T05:05:10;7.50;99.90
4820;DHT22;2424;49.696;6.630;2023-04-08T05:10:32;7.50;99.90
4820;DHT22;2424;49.696;6.630;2023-04-08T05:15:55;7.50;99.90
4820;DHT22;2424;49.696;6.630;2023-04-08T05:21:17;7.50;99.90
4820;DHT22;2424;49.696;6.630;2023-04-08T05:26:40;7.50;99.90
4820;DHT22;2424;49.696;6.630;2023-04-08T05:32:03;7.50;99.90
4820;DHT22;2424;49.696;6.630;2023-04-08T05:37:25;7.50;99.90
4820;DHT22;2424;49.696;6.630;2023-04-08T05:42:47;7.50;99.90
4820;DHT22;2424;49.696;6.630;2023-04-08T05:48:10;7.50;99.90
4820;DHT22;2424;49.696;6.630;2023-04-08T05:53:32;7.50;99.90
4820;DHT22;2424;49.696;6.630;2023-04-08T05:58:54;7.50;99.90
4820;DHT22;2424;49.696;6.630;2023-04-08T06:04:17;7.50;99.90
4820;DHT22;2424;49.696;6.630;2023-04-08T06:09:39;7.60;99.90
4820;DHT22;2424;49.696;6.630;2023-04-08T06:15:01;7.60;99.90
4820;DHT22;2424;49.696;6.630;2023-04-08T06:20:25;7.50;99.90
4820;DHT22;2424;49.696;6.630;2023-04-08T06:25:52;7.60;99.90
4820;DHT22;2424;49.696;6.630;2023-04-08T06:31:14;7.60;99.90
4820;DHT22;2424;49.696;6.630;2023-04-08T06:36:37;7.60;99.90
4820;DHT22;2424;49.696;6.630;2023-04-08T06:41:59;7.70;99.90
4820;DHT22;2424;49.696;6.630;2023-04-08T06:47:21;7.70;99.90
4820;DHT22;2424;49.696;6.630;2023-04-08T06:52:44;7.80;99.90
4820;DHT22;2424;49.696;6.630;2023-04-08T06:58:06;7.70;99.90
4820;DHT22;2424;49.696;6.630;2023-04-08T07:03:28;7.70;99.90
4820;DHT22;2424;49.696;6.630;2023-04-08T07:08:51;7.80;99.90
4820;DHT22;2424;49.696;6.630;2023-04-08T07:14:13;7.80;99.90
4820;DHT22;2424;49.696;6.630;2023-04-08T07:19:35;7.90;99.90
4820;DHT22;2424;49.696;6.630;2023-04-08T07:24:58;8.00;99.90
4820;DHT22;2424;49.696;6.630;2023-04-08T07:30:20;8.00;99.90
4820;DHT22;2424;49.696;6.630;2023-04-08T07:35:42;8.00;99.90
4820;DHT22;2424;49.696;6.630;2023-04-08T07:41:06;8.00;99.90
4820;DHT22;2424;49.696;6.630;2023-04-08T07:46:28;8.00;99.90
4820;DHT22;2424;49.696;6.630;2023-04-08T07:51:51;8.00;99.90
4820;DHT22;2424;49.696;6.630;2023-04-08T07:57:14;8.20;99.90
4820;DHT22;2424;49.696;6.630;2023-04-08T08:02:36;8.20;99.90
4820;DHT22;2424;49.696;6.630;2023-04-08T08:07:58;8.30;99.90
4820;DHT22;2424;49.696;6.630;2023-04-08T08:13:21;8.30;99.90
4820;DHT22;2424;49.696;6.630;2023-04-08T08:18:43;8.50;99.90
4820;DHT22;2424;49.696;6.630;2023-04-08T08:24:05;8.60;99.90
4820;DHT22;2424;49.696;6.630;2023-04-08T08:29:28;8.60;99.90
4820;DHT22;2424;49.696;6.630;2023-04-08T08:34:50;8.80;99.90
4820;DHT22;2424;49.696;6.630;2023-04-08T08:40:13;8.80;99.90
4820;DHT22;2424;49.696;6.630;2023-04-08T08:45:39;8.90;99.90
4820;DHT22;2424;49.696;6.630;2023-04-08T08:51:07;9.00;99.90
4820;DHT22;2424;49.696;6.630;2023-04-08T08:56:31;9.10;99.90
4820;DHT22;2424;49.696;6.630;2023-04-08T09:01:54;9.20;99.90
4820;DHT22;2424;49.696;6.630;2023-04-08T09:07:16;9.20;99.90
4820;DHT22;2424;49.696;6.630;2023-04-08T09:12:52;9.30;99.90
4820;DHT22;2424;49.696;6.630;2023-04-08T09:18:21;9.30;99.90
4820;DHT22;2424;49.696;6.630;2023-04-08T09:23:45;9.40;99.90
4820;DHT22;2424;49.696;6.630;2023-04-08T09:29:08;9.40;99.90
4820;DHT22;2424;49.696;6.630;2023-04-08T09:34:32;9.60;99.90
4820;DHT22;2424;49.696;6.630;2023-04-08T09:39:54;9.60;99.90
4820;DHT22;2424;49.696;6.630;2023-04-08T09:45:17;9.60;99.90
4820;DHT22;2424;49.696;6.630;2023-04-08T09:50:43;9.60;99.90
4820;DHT22;2424;49.696;6.630;2023-04-08T09:56:10;9.70;99.90
4820;DHT22;2424;49.696;6.630;2023-04-08T10:01:36;9.70;99.90
4820;DHT22;2424;49.696;6.630;2023-04-08T10:07:03;9.80;99.90
4820;DHT22;2424;49.696;6.630;2023-04-08T10:12:27;9.80;99.90
4820;DHT22;2424;49.696;6.630;2023-04-08T10:17:48;10.00;99.90
4820;DHT22;2424;49.696;6.630;2023-04-08T10:23:13;10.00;99.90
4820;DHT22;2424;49.696;6.630;2023-04-08T10:28:35;10.00;99.90
4820;DHT22;2424;49.696;6.630;2023-04-08T10:34:14;10.00;99.90
4820;DHT22;2424;49.696;6.630;2023-04-08T10:39:38;10.00;99.90
4820;DHT22;2424;49.696;6.630;2023-04-08T10:45:01;10.30;99.90
4820;DHT22;2424;49.696;6.630;2023-04-08T10:50:23;10.40;99.90
4820;DHT22;2424;49.696;6.630;2023-04-08T10:55:46;10.70;99.90
4820;DHT22;2424;49.696;6.630;2023-04-08T11:01:08;10.90;99.90
4820;DHT22;2424;49.696;6.630;2023-04-08T11:06:30;11.20;99.90
4820;DHT22;2424;49.696;6.630;2023-04-08T11:11:54;11.00;99.90
4820;DHT22;2424;49.696;6.630;2023-04-08T11:17:16;11.10;99.90
4820;DHT22;2424;49.696;6.630;2023-04-08T11:22:38;11.20;99.90
4820;DHT22;2424;49.696;6.630;2023-04-08T11:28:02;11.30;99.90
4820;DHT22;2424;49.696;6.630;2023-04-08T11:33:25;11.20;99.90
4820;DHT22;2424;49.696;6.630;2023-04-08T11:38:47;11.30;99.90
4820;DHT22;2424;49.696;6.630;2023-04-08T11:44:11;11.60;99.90
4820;DHT22;2424;49.696;6.630;2023-04-08T11:49:43;12.20;99.90
4820;DHT22;2424;49.696;6.630;2023-04-08T11:55:05;12.40;99.90
4820;DHT22;2424;49.696;6.630;2023-04-08T12:00:30;12.70;99.90
4820;DHT22;2424;49.696;6.630;2023-04-08T12:05:52;12.60;99.90
4820;DHT22;2424;49.696;6.630;2023-04-08T12:11:14;12.70;99.90
4820;DHT22;2424;49.696;6.630;2023-04-08T12:16:37;12.90;99.90
4820;DHT22;2424;49.696;6.630;2023-04-08T12:21:59;13.00;99.90
4820;DHT22;2424;49.696;6.630;2023-04-08T12:27:21;13.20;99.90
4820;DHT22;2424;49.696;6.630;2023-04-08T12:32:45;13.20;99.90
4820;DHT22;2424;49.696;6.630;2023-04-08T12:38:07;13.20;99.90
4820;DHT22;2424;49.696;6.630;2023-04-08T12:43:29;13.50;99.90
4820;DHT22;2424;49.696;6.630;2023-04-08T12:48:53;13.50;99.90
4820;DHT22;2424;49.696;6.630;2023-04-08T12:54:15;13.30;99.90
4820;DHT22;2424;49.696;6.630;2023-04-08T12:59:37;13.00;99.90
4820;DHT22;2424;49.696;6.630;2023-04-08T13:05:00;12.80;99.90
4820;DHT22;2424;49.696;6.630;2023-04-08T13:10:22;12.70;99.90
4820;DHT22;2424;49.696;6.630;2023-04-08T13:15:44;12.50;99.90
4820;DHT22;2424;49.696;6.630;2023-04-08T13:21:08;12.40;99.90
4820;DHT22;2424;49.696;6.630;2023-04-08T13:26:30;12.40;99.90
4820;DHT22;2424;49.696;6.630;2023-04-08T13:31:52;12.30;99.90
4820;DHT22;2424;49.696;6.630;2023-04-08T13:37:15;12.20;99.90
4820;DHT22;2424;49.696;6.630;2023-04-08T13:42:37;12.30;99.90
4820;DHT22;2424;49.696;6.630;2023-04-08T13:47:59;12.30;99.90
4820;DHT22;2424;49.696;6.630;2023-04-08T13:53:22;12.30;99.90
4820;DHT22;2424;49.696;6.630;2023-04-08T13:58:44;12.40;99.90
4820;DHT22;2424;49.696;6.630;2023-04-08T14:04:06;12.40;99.90
4820;DHT22;2424;49.696;6.630;2023-04-08T14:09:29;12.60;99.90
4820;DHT22;2424;49.696;6.630;2023-04-08T14:14:51;12.80;99.90
4820;DHT22;2424;49.696;6.630;2023-04-08T14:20:13;12.80;99.90
4820;DHT22;2424;49.696;6.630;2023-04-08T14:25:37;12.70;99.90
4820;DHT22;2424;49.696;6.630;2023-04-08T14:30:59;12.80;99.90
4820;DHT22;2424;49.696;6.630;2023-04-08T14:36:20;12.90;99.90
4820;DHT22;2424;49.696;6.630;2023-04-08T14:41:45;13.30;99.90
4820;DHT22;2424;49.696;6.630;2023-04-08T14:47:07;13.30;99.90
4820;DHT22;2424;49.696;6.630;2023-04-08T14:52:31;13.30;99.90
4820;DHT22;2424;49.696;6.630;2023-04-08T14:57:55;13.10;99.90
4820;DHT22;2424;49.696;6.630;2023-04-08T15:03:17;13.20;99.90
4820;DHT22;2424;49.696;6.630;2023-04-08T15:08:39;13.20;99.90
4820;DHT22;2424;49.696;6.630;2023-04-08T15:14:03;13.20;99.90
4820;DHT22;2424;49.696;6.630;2023-04-08T15:19:25;12.80;99.90
4820;DHT22;2424;49.696;6.630;2023-04-08T15:24:47;12.70;99.90
4820;DHT22;2424;49.696;6.630;2023-04-08T15:30:12;12.80;99.90
4820;DHT22;2424;49.696;6.630;2023-04-08T15:35:33;12.80;99.90
4820;DHT22;2424;49.696;6.630;2023-04-08T15:40:58;12.90;99.90
4820;DHT22;2424;49.696;6.630;2023-04-08T15:46:21;12.90;99.90
4820;DHT22;2424;49.696;6.630;2023-04-08T15:51:43;12.90;99.90
4820;DHT22;2424;49.696;6.630;2023-04-08T15:57:05;12.90;99.90
4820;DHT22;2424;49.696;6.630;2023-04-08T16:02:28;12.90;99.90
4820;DHT22;2424;49.696;6.630;2023-04-08T16:07:50;12.90;99.90
4820;DHT22;2424;49.696;6.630;2023-04-08T16:13:13;12.70;99.90
4820;DHT22;2424;49.696;6.630;2023-04-08T16:18:36;12.70;99.90
4820;DHT22;2424;49.696;6.630;2023-04-08T16:24:00;12.60;99.90
4820;DHT22;2424;49.696;6.630;2023-04-08T16:29:23;12.50;99.90
4820;DHT22;2424;49.696;6.630;2023-04-08T16:34:46;12.40;99.90
4820;DHT22;2424;49.696;6.630;2023-04-08T16:40:09;12.40;99.90
4820;DHT22;2424;49.696;6.630;2023-04-08T16:45:31;12.30;99.90
4820;DHT22;2424;49.696;6.630;2023-04-08T16:50:54;12.30;99.90
4820;DHT22;2424;49.696;6.630;2023-04-08T16:56:17;12.30;99.90
4820;DHT22;2424;49.696;6.630;2023-04-08T17:01:41;12.20;99.90
4820;DHT22;2424;49.696;6.630;2023-04-08T17:07:04;12.10;99.90
4820;DHT22;2424;49.696;6.630;2023-04-08T17:12:26;12.00;99.90
4820;DHT22;2424;49.696;6.630;2023-04-08T17:17:48;11.90;99.90
4820;DHT22;2424;49.696;6.630;2023-04-08T17:23:12;11.90;99.90
4820;DHT22;2424;49.696;6.630;2023-04-08T17:28:35;11.80;99.90
4820;DHT22;2424;49.696;6.630;2023-04-08T17:33:57;11.70;99.90
4820;DHT22;2424;49.696;6.630;2023-04-08T17:39:20;11.60;99.90
4820;DHT22;2424;49.696;6.630;2023-04-08T17:44:42;11.60;99.90
4820;DHT22;2424;49.696;6.630;2023-04-08T17:50:05;11.50;99.90
4820;DHT22;2424;49.696;6.630;2023-04-08T17:55:29;11.40;99.90
4820;DHT22;2424;49.696;6.630;2023-04-08T18:00:51;11.30;99.90
4820;DHT22;2424;49.696;6.630;2023-04-08T18:06:13;11.10;99.90
4820;DHT22;2424;49.696;6.630;2023-04-08T18:11:37;11.00;99.90
4820;DHT22;2424;49.696;6.630;2023-04-08T18:16:59;10.80;99.90
4820;DHT22;2424;49.696;6.630;2023-04-08T18:22:21;10.70;99.90
4820;DHT22;2424;49.696;6.630;2023-04-08T18:27:45;10.60;99.90
4820;DHT22;2424;49.696;6.630;2023-04-08T18:33:06;10.60;99.90
4820;DHT22;2424;49.696;6.630;2023-04-08T18:38:28;10.60;99.90
4820;DHT22;2424;49.696;6.630;2023-04-08T18:43:52;10.60;99.90
4820;DHT22;2424;49.696;6.630;2023-04-08T18:49:14;10.60;99.90
4820;DHT22;2424;49.696;6.630;2023-04-08T18:54:36;10.60;99.90
4820;DHT22;2424;49.696;6.630;2023-04-08T18:59:59;10.60;99.90
4820;DHT22;2424;49.696;6.630;2023-04-08T19:05:21;10.50;99.90
4820;DHT22;2424;49.696;6.630;2023-04-08T19:10:43;10.50;99.90
4820;DHT22;2424;49.696;6.630;2023-04-08T19:16:07;10.50;99.90
4820;DHT22;2424;49.696;6.630;2023-04-08T19:21:30;10.50;99.90
4820;DHT22;2424;49.696;6.630;2023-04-08T19:26:52;10.40;99.90
4820;DHT22;2424;49.696;6.630;2023-04-08T19:32:15;10.40;99.90
4820;DHT22;2424;49.696;6.630;2023-04-08T19:37:37;10.30;99.90
4820;DHT22;2424;49.696;6.630;2023-04-08T19:42:59;10.20;99.90
4820;DHT22;2424;49.696;6.630;2023-04-08T19:48:22;10.20;99.90
4820;DHT22;2424;49.696;6.630;2023-04-08T19:53:44;10.00;99.90
4820;DHT22;2424;49.696;6.630;2023-04-08T19:59:06;9.90;99.90
4820;DHT22;2424;49.696;6.630;2023-04-08T20:04:29;9.70;99.90
4820;DHT22;2424;49.696;6.630;2023-04-08T20:09:52;9.60;99.90
4820;DHT22;2424;49.696;6.630;2023-04-08T20:15:14;9.50;99.90
4820;DHT22;2424;49.696;6.630;2023-04-08T20:20:37;9.30;99.90
4820;DHT22;2424;49.696;6.630;2023-04-08T20:25:59;9.20;99.90
4820;DHT22;2424;49.696;6.630;2023-04-08T20:31:21;9.10;99.90
4820;DHT22;2424;49.696;6.630;2023-04-08T20:36:46;9.00;99.90
4820;DHT22;2424;49.696;6.630;2023-04-08T20:42:08;9.00;99.90
4820;DHT22;2424;49.696;6.630;2023-04-08T20:47:30;8.90;99.90
4820;DHT22;2424;49.696;6.630;2023-04-08T20:52:54;8.90;99.90
4820;DHT22;2424;49.696;6.630;2023-04-08T20:58:16;8.80;99.90
4820;DHT22;2424;49.696;6.630;2023-04-08T21:03:38;8.70;99.90
4820;DHT22;2424;49.696;6.630;2023-04-08T21:09:01;8.70;99.90
4820;DHT22;2424;49.696;6.630;2023-04-08T21:14:23;8.60;99.90
4820;DHT22;2424;49.696;6.630;2023-04-08T21:19:45;8.60;99.90
4820;DHT22;2424;49.696;6.630;2023-04-08T21:25:08;8.40;99.90
4820;DHT22;2424;49.696;6.630;2023-04-08T21:30:30;8.30;99.90
4820;DHT22;2424;49.696;6.630;2023-04-08T21:35:52;8.30;99.90
4820;DHT22;2424;49.696;6.630;2023-04-08T21:41:16;8.20;99.90
4820;DHT22;2424;49.696;6.630;2023-04-08T21:46:38;8.10;99.90
4820;DHT22;2424;49.696;6.630;2023-04-08T21:52:00;8.00;99.90
4820;DHT22;2424;49.696;6.630;2023-04-08T21:57:24;7.90;99.90
4820;DHT22;2424;49.696;6.630;2023-04-08T22:02:46;7.80;99.90
4820;DHT22;2424;49.696;6.630;2023-04-08T22:08:08;7.80;99.90
4820;DHT22;2424;49.696;6.630;2023-04-08T22:13:31;7.70;99.90
4820;DHT22;2424;49.696;6.630;2023-04-08T22:18:53;7.60;99.90
4820;DHT22;2424;49.696;6.630;2023-04-08T22:24:16;7.60;99.90
4820;DHT22;2424;49.696;6.630;2023-04-08T22:29:39;7.50;99.90
4820;DHT22;2424;49.696;6.630;2023-04-08T22:35:01;7.40;99.90
4820;DHT22;2424;49.696;6.630;2023-04-08T22:40:23;7.40;99.90
4820;DHT22;2424;49.696;6.630;2023-04-08T22:45:46;7.20;99.90
4820;DHT22;2424;49.696;6.630;2023-04-08T22:51:08;7.20;99.90
4820;DHT22;2424;49.696;6.630;2023-04-08T22:56:30;7.20;99.90
4820;DHT22;2424;49.696;6.630;2023-04-08T23:01:54;7.10;99.90
4820;DHT22;2424;49.696;6.630;2023-04-08T23:07:16;7.00;99.90
4820;DHT22;2424;49.696;6.630;2023-04-08T23:12:38;6.90;99.90
4820;DHT22;2424;49.696;6.630;2023-04-08T23:18:01;6.90;99.90
4820;DHT22;2424;49.696;6.630;2023-04-08T23:23:23;6.80;99.90
4820;DHT22;2424;49.696;6.630;2023-04-08T23:28:45;6.70;99.90
4820;DHT22;2424;49.696;6.630;2023-04-08T23:34:09;6.60;99.90
4820;DHT22;2424;49.696;6.630;2023-04-08T23:39:31;6.50;99.90
4820;DHT22;2424;49.696;6.630;2023-04-08T23:44:53;6.50;99.90
4820;DHT22;2424;49.696;6.630;2023-04-08T23:50:17;6.40;99.90
4820;DHT22;2424;49.696;6.630;2023-04-08T23:55:39;6.50;99.90
